sensor_id;sensor_type;location;lat;lon;timestamp;P1;durP1;ratioP1;P2;durP2;ratioP2
23720;SDS011;42950;52.134;5.578;2023-04-10T00:01:36;23.02;;;16.20;;
23720;SDS011;42950;52.134;5.578;2023-04-10T00:04:02;19.38;;;14.38;;
23720;SDS011;42950;52.134;5.578;2023-04-10T00:06:28;20.15;;;14.95;;
23720;SDS011;42950;52.134;5.578;2023-04-10T00:08:57;19.95;;;14.68;;
23720;SDS011;42950;52.134;5.578;2023-04-10T00:11:25;19.40;;;14.35;;
23720;SDS011;42950;52.134;5.578;2023-04-10T00:13:52;19.80;;;14.82;;
23720;SDS011;42950;52.134;5.578;2023-04-10T00:16:18;19.80;;;14.80;;
23720;SDS011;42950;52.134;5.578;2023-04-10T00:18:45;18.48;;;14.70;;
23720;SDS011;42950;52.134;5.578;2023-04-10T00:21:11;18.40;;;13.57;;
23720;SDS011;42950;52.134;5.578;2023-04-10T00:23:36;18.42;;;13.50;;
23720;SDS011;42950;52.134;5.578;2023-04-10T00:26:02;16.92;;;13.63;;
23720;SDS011;42950;52.134;5.578;2023-04-10T00:28:28;17.17;;;13.52;;
23720;SDS011;42950;52.134;5.578;2023-04-10T00:30:54;16.42;;;12.85;;
23720;SDS011;42950;52.134;5.578;2023-04-10T00:33:19;17.65;;;12.90;;
23720;SDS011;42950;52.134;5.578;2023-04-10T00:35:45;17.83;;;12.98;;
23720;SDS011;42950;52.134;5.578;2023-04-10T00:38:11;17.65;;;13.18;;
23720;SDS011;42950;52.134;5.578;2023-04-10T00:40:37;15.80;;;12.23;;
23720;SDS011;42950;52.134;5.578;2023-04-10T00:43:03;14.63;;;11.85;;
23720;SDS011;42950;52.134;5.578;2023-04-10T00:45:28;14.88;;;11.60;;
23720;SDS011;42950;52.134;5.578;2023-04-10T00:47:54;15.25;;;12.13;;
23720;SDS011;42950;52.134;5.578;2023-04-10T00:50:20;15.32;;;12.52;;
23720;SDS011;42950;52.134;5.578;2023-04-10T00:52:49;14.82;;;11.88;;
23720;SDS011;42950;52.134;5.578;2023-04-10T00:55:15;13.45;;;10.90;;
23720;SDS011;42950;52.134;5.578;2023-04-10T00:57:44;13.57;;;11.00;;
23720;SDS011;42950;52.134;5.578;2023-04-10T01:00:14;13.68;;;11.10;;
23720;SDS011;42950;52.134;5.578;2023-04-10T01:02:40;13.60;;;11.00;;
23720;SDS011;42950;52.134;5.578;2023-04-10T01:05:07;14.70;;;11.00;;
23720;SDS011;42950;52.134;5.578;2023-04-10T01:07:40;13.30;;;10.13;;
23720;SDS011;42950;52.134;5.578;2023-04-10T01:10:37;14.27;;;10.23;;
23720;SDS011;42950;52.134;5.578;2023-04-10T01:16:04;12.95;;;10.25;;
23720;SDS011;42950;52.134;5.578;2023-04-10T01:18:45;12.60;;;10.30;;
23720;SDS011;42950;52.134;5.578;2023-04-10T01:21:26;12.60;;;9.98;;
23720;SDS011;42950;52.134;5.578;2023-04-10T01:29:31;12.27;;;10.15;;
23720;SDS011;42950;52.134;5.578;2023-04-10T01:32:33;12.90;;;11.18;;
23720;SDS011;42950;52.134;5.578;2023-04-10T01:34:55;12.75;;;10.20;;
23720;SDS011;42950;52.134;5.578;2023-04-10T01:37:29;12.02;;;10.13;;
23720;SDS011;42950;52.134;5.578;2023-04-10T01:40:01;12.63;;;10.50;;
23720;SDS011;42950;52.134;5.578;2023-04-10T01:42:31;13.00;;;10.45;;
23720;SDS011;42950;52.134;5.578;2023-04-10T01:45:03;11.98;;;9.65;;
23720;SDS011;42950;52.134;5.578;2023-04-10T01:47:30;10.93;;;9.77;;
23720;SDS011;42950;52.134;5.578;2023-04-10T01:49:56;13.32;;;10.18;;
23720;SDS011;42950;52.134;5.578;2023-04-10T01:52:23;11.10;;;9.38;;
23720;SDS011;42950;52.134;5.578;2023-04-10T01:54:50;11.95;;;9.95;;
23720;SDS011;42950;52.134;5.578;2023-04-10T01:57:18;15.88;;;10.45;;
23720;SDS011;42950;52.134;5.578;2023-04-10T01:59:44;11.07;;;9.82;;
23720;SDS011;42950;52.134;5.578;2023-04-10T02:02:10;12.93;;;9.45;;
23720;SDS011;42950;52.134;5.578;2023-04-10T02:04:36;13.35;;;9.50;;
23720;SDS011;42950;52.134;5.578;2023-04-10T02:07:10;12.32;;;9.13;;
23720;SDS011;42950;52.134;5.578;2023-04-10T02:09:49;11.60;;;9.70;;
23720;SDS011;42950;52.134;5.578;2023-04-10T02:12:34;11.82;;;9.95;;
23720;SDS011;42950;52.134;5.578;2023-04-10T02:15:03;11.88;;;9.57;;
23720;SDS011;42950;52.134;5.578;2023-04-10T02:17:31;11.70;;;9.32;;
23720;SDS011;42950;52.134;5.578;2023-04-10T02:19:58;10.88;;;9.30;;
23720;SDS011;42950;52.134;5.578;2023-04-10T02:22:25;11.57;;;9.95;;
23720;SDS011;42950;52.134;5.578;2023-04-10T02:24:52;11.13;;;9.32;;
23720;SDS011;42950;52.134;5.578;2023-04-10T02:27:34;10.45;;;9.30;;
23720;SDS011;42950;52.134;5.578;2023-04-10T02:30:01;11.02;;;9.77;;
23720;SDS011;42950;52.134;5.578;2023-04-10T02:32:27;10.60;;;9.23;;
23720;SDS011;42950;52.134;5.578;2023-04-10T02:34:53;12.38;;;9.50;;
23720;SDS011;42950;52.134;5.578;2023-04-10T02:37:21;15.82;;;9.43;;
23720;SDS011;42950;52.134;5.578;2023-04-10T02:39:47;12.80;;;9.90;;
23720;SDS011;42950;52.134;5.578;2023-04-10T02:42:14;11.80;;;9.55;;
23720;SDS011;42950;52.134;5.578;2023-04-10T02:44:41;11.05;;;9.13;;
23720;SDS011;42950;52.134;5.578;2023-04-10T02:47:06;12.50;;;9.90;;
23720;SDS011;42950;52.134;5.578;2023-04-10T02:49:32;12.50;;;9.52;;
23720;SDS011;42950;52.134;5.578;2023-04-10T02:51:59;11.98;;;9.85;;
23720;SDS011;42950;52.134;5.578;2023-04-10T02:54:25;11.27;;;9.77;;
23720;SDS011;42950;52.134;5.578;2023-04-10T02:56:51;13.38;;;10.35;;
23720;SDS011;42950;52.134;5.578;2023-04-10T02:59:17;13.20;;;9.93;;
23720;SDS011;42950;52.134;5.578;2023-04-10T03:01:44;12.63;;;9.40;;
23720;SDS011;42950;52.134;5.578;2023-04-10T03:04:11;11.95;;;10.30;;
23720;SDS011;42950;52.134;5.578;2023-04-10T03:06:37;10.95;;;9.23;;
23720;SDS011;42950;52.134;5.578;2023-04-10T03:09:03;11.23;;;9.80;;
23720;SDS011;42950;52.134;5.578;2023-04-10T03:11:28;11.25;;;9.55;;
23720;SDS011;42950;52.134;5.578;2023-04-10T03:13:55;13.13;;;10.60;;
23720;SDS011;42950;52.134;5.578;2023-04-10T03:16:24;13.90;;;10.05;;
23720;SDS011;42950;52.134;5.578;2023-04-10T03:18:51;13.38;;;9.65;;
23720;SDS011;42950;52.134;5.578;2023-04-10T03:21:17;12.02;;;9.55;;
23720;SDS011;42950;52.134;5.578;2023-04-10T03:23:42;12.68;;;10.25;;
23720;SDS011;42950;52.134;5.578;2023-04-10T03:26:09;11.38;;;9.90;;
23720;SDS011;42950;52.134;5.578;2023-04-10T03:28:34;11.85;;;9.80;;
23720;SDS011;42950;52.134;5.578;2023-04-10T03:31:04;11.30;;;9.55;;
23720;SDS011;42950;52.134;5.578;2023-04-10T03:33:30;13.20;;;9.80;;
23720;SDS011;42950;52.134;5.578;2023-04-10T03:35:57;13.60;;;10.00;;
23720;SDS011;42950;52.134;5.578;2023-04-10T03:38:22;11.98;;;10.00;;
23720;SDS011;42950;52.134;5.578;2023-04-10T03:40:48;12.38;;;9.70;;
23720;SDS011;42950;52.134;5.578;2023-04-10T03:43:14;12.32;;;9.85;;
23720;SDS011;42950;52.134;5.578;2023-04-10T03:45:40;11.63;;;9.43;;
23720;SDS011;42950;52.134;5.578;2023-04-10T03:48:06;11.05;;;9.48;;
23720;SDS011;42950;52.134;5.578;2023-04-10T03:50:32;12.63;;;10.57;;
23720;SDS011;42950;52.134;5.578;2023-04-10T03:52:59;13.15;;;9.55;;
23720;SDS011;42950;52.134;5.578;2023-04-10T03:55:24;11.05;;;9.23;;
23720;SDS011;42950;52.134;5.578;2023-04-10T03:57:50;11.18;;;9.23;;
23720;SDS011;42950;52.134;5.578;2023-04-10T04:00:16;10.82;;;9.40;;
23720;SDS011;42950;52.134;5.578;2023-04-10T04:02:41;11.57;;;9.75;;
23720;SDS011;42950;52.134;5.578;2023-04-10T04:05:08;10.80;;;9.48;;
23720;SDS011;42950;52.134;5.578;2023-04-10T04:07:35;12.48;;;10.38;;
23720;SDS011;42950;52.134;5.578;2023-04-10T04:10:00;11.57;;;9.52;;
23720;SDS011;42950;52.134;5.578;2023-04-10T04:12:26;10.88;;;9.50;;
23720;SDS011;42950;52.134;5.578;2023-04-10T04:14:52;12.40;;;10.27;;
23720;SDS011;42950;52.134;5.578;2023-04-10T04:17:18;12.15;;;10.20;;
23720;SDS011;42950;52.134;5.578;2023-04-10T04:19:43;12.55;;;9.50;;
23720;SDS011;42950;52.134;5.578;2023-04-10T04:22:09;13.63;;;9.82;;
23720;SDS011;42950;52.134;5.578;2023-04-10T04:24:35;10.00;;;8.95;;
23720;SDS011;42950;52.134;5.578;2023-04-10T04:27:01;11.68;;;9.73;;
23720;SDS011;42950;52.134;5.578;2023-04-10T04:29:27;12.15;;;9.15;;
23720;SDS011;42950;52.134;5.578;2023-04-10T04:31:53;10.40;;;9.27;;
23720;SDS011;42950;52.134;5.578;2023-04-10T04:34:19;11.82;;;9.02;;
23720;SDS011;42950;52.134;5.578;2023-04-10T04:36:44;10.90;;;8.77;;
23720;SDS011;42950;52.134;5.578;2023-04-10T04:39:10;11.18;;;9.70;;
23720;SDS011;42950;52.134;5.578;2023-04-10T04:41:35;11.30;;;9.13;;
23720;SDS011;42950;52.134;5.578;2023-04-10T04:44:01;11.80;;;9.18;;
23720;SDS011;42950;52.134;5.578;2023-04-10T04:46:27;11.15;;;9.57;;
23720;SDS011;42950;52.134;5.578;2023-04-10T04:48:53;12.98;;;9.00;;
23720;SDS011;42950;52.134;5.578;2023-04-10T04:51:19;10.90;;;9.27;;
23720;SDS011;42950;52.134;5.578;2023-04-10T04:53:44;13.00;;;9.73;;
23720;SDS011;42950;52.134;5.578;2023-04-10T04:56:10;13.70;;;8.85;;
23720;SDS011;42950;52.134;5.578;2023-04-10T04:58:36;10.35;;;8.82;;
23720;SDS011;42950;52.134;5.578;2023-04-10T05:01:02;9.82;;;8.80;;
23720;SDS011;42950;52.134;5.578;2023-04-10T05:03:27;9.85;;;8.43;;
23720;SDS011;42950;52.134;5.578;2023-04-10T05:05:53;9.80;;;8.80;;
23720;SDS011;42950;52.134;5.578;2023-04-10T05:08:20;10.93;;;9.15;;
23720;SDS011;42950;52.134;5.578;2023-04-10T05:10:46;12.50;;;8.90;;
23720;SDS011;42950;52.134;5.578;2023-04-10T05:13:12;11.10;;;9.02;;
23720;SDS011;42950;52.134;5.578;2023-04-10T05:15:39;11.40;;;9.80;;
23720;SDS011;42950;52.134;5.578;2023-04-10T05:18:05;10.23;;;9.07;;
23720;SDS011;42950;52.134;5.578;2023-04-10T05:20:34;11.60;;;9.15;;
23720;SDS011;42950;52.134;5.578;2023-04-10T05:23:00;9.35;;;8.18;;
23720;SDS011;42950;52.134;5.578;2023-04-10T05:25:27;10.85;;;9.00;;
23720;SDS011;42950;52.134;5.578;2023-04-10T05:27:52;10.65;;;8.63;;
23720;SDS011;42950;52.134;5.578;2023-04-10T05:30:19;10.35;;;8.75;;
23720;SDS011;42950;52.134;5.578;2023-04-10T05:32:45;12.07;;;9.30;;
23720;SDS011;42950;52.134;5.578;2023-04-10T05:35:10;11.23;;;8.23;;
23720;SDS011;42950;52.134;5.578;2023-04-10T05:37:36;10.23;;;8.45;;
23720;SDS011;42950;52.134;5.578;2023-04-10T05:40:02;10.77;;;8.75;;
23720;SDS011;42950;52.134;5.578;2023-04-10T05:42:28;10.60;;;8.52;;
23720;SDS011;42950;52.134;5.578;2023-04-10T05:44:54;10.63;;;8.65;;
23720;SDS011;42950;52.134;5.578;2023-04-10T05:47:20;11.15;;;8.95;;
23720;SDS011;42950;52.134;5.578;2023-04-10T05:49:45;9.90;;;8.30;;
23720;SDS011;42950;52.134;5.578;2023-04-10T05:52:11;10.10;;;8.90;;
23720;SDS011;42950;52.134;5.578;2023-04-10T05:54:36;10.60;;;8.25;;
23720;SDS011;42950;52.134;5.578;2023-04-10T05:57:02;10.20;;;8.73;;
23720;SDS011;42950;52.134;5.578;2023-04-10T05:59:28;10.48;;;8.93;;
23720;SDS011;42950;52.134;5.578;2023-04-10T06:01:55;11.52;;;9.10;;
23720;SDS011;42950;52.134;5.578;2023-04-10T06:04:21;9.63;;;8.63;;
23720;SDS011;42950;52.134;5.578;2023-04-10T06:06:47;9.25;;;8.13;;
23720;SDS011;42950;52.134;5.578;2023-04-10T06:09:13;10.40;;;8.35;;
23720;SDS011;42950;52.134;5.578;2023-04-10T06:11:38;10.43;;;9.15;;
23720;SDS011;42950;52.134;5.578;2023-04-10T06:14:04;10.98;;;9.27;;
23720;SDS011;42950;52.134;5.578;2023-04-10T06:16:30;12.52;;;9.00;;
23720;SDS011;42950;52.134;5.578;2023-04-10T06:18:55;12.48;;;9.27;;
23720;SDS011;42950;52.134;5.578;2023-04-10T06:21:22;11.07;;;8.55;;
23720;SDS011;42950;52.134;5.578;2023-04-10T06:23:47;9.55;;;8.35;;
23720;SDS011;42950;52.134;5.578;2023-04-10T06:26:13;11.65;;;9.13;;
23720;SDS011;42950;52.134;5.578;2023-04-10T06:28:38;11.20;;;8.48;;
23720;SDS011;42950;52.134;5.578;2023-04-10T06:31:07;11.35;;;7.85;;
23720;SDS011;42950;52.134;5.578;2023-04-10T06:33:33;10.98;;;8.80;;
23720;SDS011;42950;52.134;5.578;2023-04-10T06:36:01;9.65;;;8.65;;
23720;SDS011;42950;52.134;5.578;2023-04-10T06:38:28;10.85;;;8.38;;
23720;SDS011;42950;52.134;5.578;2023-04-10T06:40:54;10.70;;;8.77;;
23720;SDS011;42950;52.134;5.578;2023-04-10T06:43:20;10.32;;;8.70;;
23720;SDS011;42950;52.134;5.578;2023-04-10T06:45:45;9.48;;;8.48;;
23720;SDS011;42950;52.134;5.578;2023-04-10T06:48:11;10.02;;;8.45;;
23720;SDS011;42950;52.134;5.578;2023-04-10T06:50:37;10.63;;;8.65;;
23720;SDS011;42950;52.134;5.578;2023-04-10T06:53:02;10.32;;;8.15;;
23720;SDS011;42950;52.134;5.578;2023-04-10T06:55:28;11.68;;;9.15;;
23720;SDS011;42950;52.134;5.578;2023-04-10T06:57:54;10.45;;;8.70;;
23720;SDS011;42950;52.134;5.578;2023-04-10T07:00:20;9.45;;;8.32;;
23720;SDS011;42950;52.134;5.578;2023-04-10T07:02:47;11.02;;;8.82;;
23720;SDS011;42950;52.134;5.578;2023-04-10T07:05:12;10.68;;;8.93;;
23720;SDS011;42950;52.134;5.578;2023-04-10T07:07:38;10.15;;;8.02;;
23720;SDS011;42950;52.134;5.578;2023-04-10T07:10:04;10.68;;;8.63;;
23720;SDS011;42950;52.134;5.578;2023-04-10T07:12:31;11.18;;;8.57;;
23720;SDS011;42950;52.134;5.578;2023-04-10T07:14:56;10.32;;;7.97;;
23720;SDS011;42950;52.134;5.578;2023-04-10T07:17:22;9.20;;;8.00;;
23720;SDS011;42950;52.134;5.578;2023-04-10T07:19:48;10.63;;;8.55;;
23720;SDS011;42950;52.134;5.578;2023-04-10T07:22:13;9.98;;;7.85;;
23720;SDS011;42950;52.134;5.578;2023-04-10T07:24:39;10.02;;;8.77;;
23720;SDS011;42950;52.134;5.578;2023-04-10T07:27:05;10.52;;;8.35;;
23720;SDS011;42950;52.134;5.578;2023-04-10T07:29:31;9.32;;;7.95;;
23720;SDS011;42950;52.134;5.578;2023-04-10T07:31:56;10.18;;;8.70;;
23720;SDS011;42950;52.134;5.578;2023-04-10T07:34:22;9.15;;;8.18;;
23720;SDS011;42950;52.134;5.578;2023-04-10T07:36:48;10.05;;;9.00;;
23720;SDS011;42950;52.134;5.578;2023-04-10T07:39:14;10.20;;;8.85;;
23720;SDS011;42950;52.134;5.578;2023-04-10T07:41:39;9.73;;;8.25;;
23720;SDS011;42950;52.134;5.578;2023-04-10T07:44:05;10.88;;;8.48;;
23720;SDS011;42950;52.134;5.578;2023-04-10T07:46:31;10.23;;;8.38;;
23720;SDS011;42950;52.134;5.578;2023-04-10T07:48:56;10.43;;;8.48;;
23720;SDS011;42950;52.134;5.578;2023-04-10T07:51:22;10.30;;;8.70;;
23720;SDS011;42950;52.134;5.578;2023-04-10T07:53:51;10.65;;;7.65;;
23720;SDS011;42950;52.134;5.578;2023-04-10T07:56:17;9.75;;;7.53;;
23720;SDS011;42950;52.134;5.578;2023-04-10T07:58:44;10.38;;;7.90;;
23720;SDS011;42950;52.134;5.578;2023-04-10T08:01:10;8.60;;;7.70;;
23720;SDS011;42950;52.134;5.578;2023-04-10T08:03:37;9.20;;;7.97;;
23720;SDS011;42950;52.134;5.578;2023-04-10T08:06:03;10.10;;;7.88;;
23720;SDS011;42950;52.134;5.578;2023-04-10T08:08:29;8.77;;;7.85;;
23720;SDS011;42950;52.134;5.578;2023-04-10T08:10:55;8.55;;;7.65;;
23720;SDS011;42950;52.134;5.578;2023-04-10T08:13:20;9.60;;;7.93;;
23720;SDS011;42950;52.134;5.578;2023-04-10T08:15:46;9.40;;;7.75;;
23720;SDS011;42950;52.134;5.578;2023-04-10T08:18:11;9.65;;;7.65;;
23720;SDS011;42950;52.134;5.578;2023-04-10T08:20:37;9.00;;;8.10;;
23720;SDS011;42950;52.134;5.578;2023-04-10T08:23:03;9.70;;;8.25;;
23720;SDS011;42950;52.134;5.578;2023-04-10T08:25:29;10.38;;;9.27;;
23720;SDS011;42950;52.134;5.578;2023-04-10T08:27:55;10.77;;;9.27;;
23720;SDS011;42950;52.134;5.578;2023-04-10T08:30:20;11.18;;;9.45;;
23720;SDS011;42950;52.134;5.578;2023-04-10T08:32:46;12.50;;;9.82;;
23720;SDS011;42950;52.134;5.578;2023-04-10T08:35:11;9.75;;;8.75;;
23720;SDS011;42950;52.134;5.578;2023-04-10T08:37:37;10.85;;;9.05;;
23720;SDS011;42950;52.134;5.578;2023-04-10T08:40:02;12.25;;;8.90;;
23720;SDS011;42950;52.134;5.578;2023-04-10T08:42:29;10.88;;;8.30;;
23720;SDS011;42950;52.134;5.578;2023-04-10T08:44:55;11.55;;;8.80;;
23720;SDS011;42950;52.134;5.578;2023-04-10T08:47:21;11.93;;;8.88;;
23720;SDS011;42950;52.134;5.578;2023-04-10T08:49:53;10.07;;;8.88;;
23720;SDS011;42950;52.134;5.578;2023-04-10T08:52:22;9.52;;;8.50;;
23720;SDS011;42950;52.134;5.578;2023-04-10T08:54:53;10.25;;;8.55;;
23720;SDS011;42950;52.134;5.578;2023-04-10T08:57:20;11.88;;;8.93;;
23720;SDS011;42950;52.134;5.578;2023-04-10T08:59:46;10.48;;;8.80;;
23720;SDS011;42950;52.134;5.578;2023-04-10T09:02:13;9.38;;;8.43;;
23720;SDS011;42950;52.134;5.578;2023-04-10T09:04:38;10.60;;;8.68;;
23720;SDS011;42950;52.134;5.578;2023-04-10T09:07:04;14.05;;;8.93;;
23720;SDS011;42950;52.134;5.578;2023-04-10T09:09:30;10.02;;;9.02;;
23720;SDS011;42950;52.134;5.578;2023-04-10T09:11:59;11.02;;;8.65;;
23720;SDS011;42950;52.134;5.578;2023-04-10T09:14:28;9.63;;;8.70;;
23720;SDS011;42950;52.134;5.578;2023-04-10T09:17:15;11.18;;;8.93;;
23720;SDS011;42950;52.134;5.578;2023-04-10T09:19:42;10.73;;;9.13;;
23720;SDS011;42950;52.134;5.578;2023-04-10T09:22:12;9.65;;;8.48;;
23720;SDS011;42950;52.134;5.578;2023-04-10T09:24:39;9.82;;;8.82;;
23720;SDS011;42950;52.134;5.578;2023-04-10T09:27:06;10.95;;;9.82;;
23720;SDS011;42950;52.134;5.578;2023-04-10T09:29:40;10.90;;;9.48;;
23720;SDS011;42950;52.134;5.578;2023-04-10T09:32:34;11.55;;;9.57;;
23720;SDS011;42950;52.134;5.578;2023-04-10T09:35:06;10.98;;;9.50;;
23720;SDS011;42950;52.134;5.578;2023-04-10T09:37:37;13.45;;;9.77;;
23720;SDS011;42950;52.134;5.578;2023-04-10T09:40:04;11.52;;;8.60;;
23720;SDS011;42950;52.134;5.578;2023-04-10T09:42:43;18.98;;;13.38;;
23720;SDS011;42950;52.134;5.578;2023-04-10T09:45:08;12.55;;;10.20;;
23720;SDS011;42950;52.134;5.578;2023-04-10T09:47:34;13.05;;;10.27;;
23720;SDS011;42950;52.134;5.578;2023-04-10T09:50:00;10.63;;;9.00;;
23720;SDS011;42950;52.134;5.578;2023-04-10T09:52:29;12.07;;;10.77;;
23720;SDS011;42950;52.134;5.578;2023-04-10T09:54:57;11.13;;;9.45;;
23720;SDS011;42950;52.134;5.578;2023-04-10T09:57:35;9.40;;;8.45;;
23720;SDS011;42950;52.134;5.578;2023-04-10T10:00:02;11.25;;;9.90;;
23720;SDS011;42950;52.134;5.578;2023-04-10T10:02:30;10.50;;;9.40;;
23720;SDS011;42950;52.134;5.578;2023-04-10T10:04:58;11.13;;;9.68;;
23720;SDS011;42950;52.134;5.578;2023-04-10T10:07:25;11.52;;;9.07;;
23720;SDS011;42950;52.134;5.578;2023-04-10T10:09:51;10.18;;;9.05;;
23720;SDS011;42950;52.134;5.578;2023-04-10T10:12:28;9.80;;;8.80;;
23720;SDS011;42950;52.134;5.578;2023-04-10T10:15:22;18.58;;;16.50;;
23720;SDS011;42950;52.134;5.578;2023-04-10T10:18:08;22.38;;;18.63;;
23720;SDS011;42950;52.134;5.578;2023-04-10T10:20:44;11.50;;;10.30;;
23720;SDS011;42950;52.134;5.578;2023-04-10T10:23:10;18.10;;;11.88;;
23720;SDS011;42950;52.134;5.578;2023-04-10T10:25:37;11.90;;;10.63;;
23720;SDS011;42950;52.134;5.578;2023-04-10T10:28:03;10.32;;;9.25;;
23720;SDS011;42950;52.134;5.578;2023-04-10T10:30:31;9.18;;;8.27;;
23720;SDS011;42950;52.134;5.578;2023-04-10T10:32:58;10.30;;;8.27;;
23720;SDS011;42950;52.134;5.578;2023-04-10T10:35:27;9.52;;;8.20;;
23720;SDS011;42950;52.134;5.578;2023-04-10T10:37:57;11.32;;;8.90;;
23720;SDS011;42950;52.134;5.578;2023-04-10T10:43:32;9.95;;;8.95;;
23720;SDS011;42950;52.134;5.578;2023-04-10T10:46:16;9.35;;;8.35;;
23720;SDS011;42950;52.134;5.578;2023-04-10T10:49:03;9.23;;;7.82;;
23720;SDS011;42950;52.134;5.578;2023-04-10T10:51:45;9.80;;;8.10;;
23720;SDS011;42950;52.134;5.578;2023-04-10T10:57:45;8.00;;;7.20;;
23720;SDS011;42950;52.134;5.578;2023-04-10T11:00:09;9.35;;;7.35;;
23720;SDS011;42950;52.134;5.578;2023-04-10T11:02:35;7.80;;;7.00;;
23720;SDS011;42950;52.134;5.578;2023-04-10T11:05:01;8.68;;;7.88;;
23720;SDS011;42950;52.134;5.578;2023-04-10T11:14:26;9.05;;;7.97;;
23720;SDS011;42950;52.134;5.578;2023-04-10T11:19:01;8.25;;;7.45;;
23720;SDS011;42950;52.134;5.578;2023-04-10T11:21:27;8.55;;;7.70;;
23720;SDS011;42950;52.134;5.578;2023-04-10T11:31:34;7.35;;;6.65;;
23720;SDS011;42950;52.134;5.578;2023-04-10T11:34:04;7.95;;;7.15;;
23720;SDS011;42950;52.134;5.578;2023-04-10T11:36:31;9.95;;;6.88;;
23720;SDS011;42950;52.134;5.578;2023-04-10T11:39:02;7.53;;;6.55;;
23720;SDS011;42950;52.134;5.578;2023-04-10T11:41:58;7.40;;;6.63;;
23720;SDS011;42950;52.134;5.578;2023-04-10T11:44:32;7.70;;;5.93;;
23720;SDS011;42950;52.134;5.578;2023-04-10T11:47:03;7.63;;;6.30;;
23720;SDS011;42950;52.134;5.578;2023-04-10T11:49:30;7.22;;;6.28;;
23720;SDS011;42950;52.134;5.578;2023-04-10T11:51:57;9.73;;;7.30;;
23720;SDS011;42950;52.134;5.578;2023-04-10T11:54:23;7.35;;;6.65;;
23720;SDS011;42950;52.134;5.578;2023-04-10T11:57:08;7.72;;;7.03;;
23720;SDS011;42950;52.134;5.578;2023-04-10T11:59:36;9.65;;;6.38;;
23720;SDS011;42950;52.134;5.578;2023-04-10T12:02:03;9.38;;;6.70;;
23720;SDS011;42950;52.134;5.578;2023-04-10T12:04:38;7.55;;;6.53;;
23720;SDS011;42950;52.134;5.578;2023-04-10T12:07:04;6.80;;;6.10;;
23720;SDS011;42950;52.134;5.578;2023-04-10T12:09:30;6.80;;;6.20;;
23720;SDS011;42950;52.134;5.578;2023-04-10T12:11:57;7.55;;;6.50;;
23720;SDS011;42950;52.134;5.578;2023-04-10T12:14:38;7.10;;;6.40;;
23720;SDS011;42950;52.134;5.578;2023-04-10T12:17:06;8.23;;;7.00;;
23720;SDS011;42950;52.134;5.578;2023-04-10T12:19:35;7.47;;;6.07;;
23720;SDS011;42950;52.134;5.578;2023-04-10T12:22:02;7.32;;;6.20;;
23720;SDS011;42950;52.134;5.578;2023-04-10T12:24:47;6.53;;;5.93;;
23720;SDS011;42950;52.134;5.578;2023-04-10T12:27:16;6.75;;;5.90;;
23720;SDS011;42950;52.134;5.578;2023-04-10T12:29:45;7.10;;;5.63;;
23720;SDS011;42950;52.134;5.578;2023-04-10T12:32:11;11.05;;;5.93;;
23720;SDS011;42950;52.134;5.578;2023-04-10T12:34:37;6.50;;;5.10;;
23720;SDS011;42950;52.134;5.578;2023-04-10T12:37:03;5.68;;;5.13;;
23720;SDS011;42950;52.134;5.578;2023-04-10T12:39:29;5.18;;;4.68;;
23720;SDS011;42950;52.134;5.578;2023-04-10T12:42:13;5.25;;;4.75;;
23720;SDS011;42950;52.134;5.578;2023-04-10T12:44:56;5.10;;;4.70;;
23720;SDS011;42950;52.134;5.578;2023-04-10T12:47:23;5.00;;;4.05;;
23720;SDS011;42950;52.134;5.578;2023-04-10T12:52:36;5.63;;;4.60;;
23720;SDS011;42950;52.134;5.578;2023-04-10T12:55:11;5.00;;;4.13;;
23720;SDS011;42950;52.134;5.578;2023-04-10T12:57:38;4.57;;;4.18;;
23720;SDS011;42950;52.134;5.578;2023-04-10T13:00:05;5.40;;;4.90;;
23720;SDS011;42950;52.134;5.578;2023-04-10T13:02:33;5.40;;;4.65;;
23720;SDS011;42950;52.134;5.578;2023-04-10T13:05:00;4.53;;;4.13;;
23720;SDS011;42950;52.134;5.578;2023-04-10T13:07:25;4.60;;;4.18;;
23720;SDS011;42950;52.134;5.578;2023-04-10T13:09:51;6.43;;;4.00;;
23720;SDS011;42950;52.134;5.578;2023-04-10T13:12:17;5.82;;;3.97;;
23720;SDS011;42950;52.134;5.578;2023-04-10T13:14:42;4.35;;;3.90;;
23720;SDS011;42950;52.134;5.578;2023-04-10T13:17:08;5.13;;;3.80;;
23720;SDS011;42950;52.134;5.578;2023-04-10T13:19:33;4.40;;;4.00;;
23720;SDS011;42950;52.134;5.578;2023-04-10T13:21:59;6.28;;;4.50;;
23720;SDS011;42950;52.134;5.578;2023-04-10T13:24:25;6.88;;;5.50;;
23720;SDS011;42950;52.134;5.578;2023-04-10T13:26:51;8.23;;;6.07;;
23720;SDS011;42950;52.134;5.578;2023-04-10T13:29:17;8.68;;;5.95;;
23720;SDS011;42950;52.134;5.578;2023-04-10T13:31:43;8.07;;;6.50;;
23720;SDS011;42950;52.134;5.578;2023-04-10T13:34:08;6.95;;;5.13;;
23720;SDS011;42950;52.134;5.578;2023-04-10T13:36:34;6.70;;;5.13;;
23720;SDS011;42950;52.134;5.578;2023-04-10T13:38:59;6.35;;;5.03;;
23720;SDS011;42950;52.134;5.578;2023-04-10T13:41:25;6.05;;;5.00;;
23720;SDS011;42950;52.134;5.578;2023-04-10T13:43:50;8.10;;;6.03;;
23720;SDS011;42950;52.134;5.578;2023-04-10T13:46:16;6.38;;;5.78;;
23720;SDS011;42950;52.134;5.578;2023-04-10T13:48:41;10.30;;;5.88;;
23720;SDS011;42950;52.134;5.578;2023-04-10T13:51:07;11.85;;;6.75;;
23720;SDS011;42950;52.134;5.578;2023-04-10T13:53:33;6.43;;;5.82;;
23720;SDS011;42950;52.134;5.578;2023-04-10T13:55:59;8.73;;;6.63;;
23720;SDS011;42950;52.134;5.578;2023-04-10T13:58:24;10.98;;;7.55;;
23720;SDS011;42950;52.134;5.578;2023-04-10T14:00:52;13.60;;;8.88;;
23720;SDS011;42950;52.134;5.578;2023-04-10T14:03:18;11.00;;;9.00;;
23720;SDS011;42950;52.134;5.578;2023-04-10T14:05:43;7.60;;;6.70;;
23720;SDS011;42950;52.134;5.578;2023-04-10T14:08:09;7.00;;;6.00;;
23720;SDS011;42950;52.134;5.578;2023-04-10T14:10:38;4.55;;;4.15;;
23720;SDS011;42950;52.134;5.578;2023-04-10T14:13:04;5.05;;;4.03;;
23720;SDS011;42950;52.134;5.578;2023-04-10T14:15:35;5.43;;;4.18;;
23720;SDS011;42950;52.134;5.578;2023-04-10T14:18:00;4.97;;;4.47;;
23720;SDS011;42950;52.134;5.578;2023-04-10T14:20:26;4.80;;;4.40;;
23720;SDS011;42950;52.134;5.578;2023-04-10T14:22:51;5.28;;;4.78;;
23720;SDS011;42950;52.134;5.578;2023-04-10T14:25:17;4.32;;;4.03;;
23720;SDS011;42950;52.134;5.578;2023-04-10T14:27:43;5.65;;;4.80;;
23720;SDS011;42950;52.134;5.578;2023-04-10T14:30:09;7.38;;;4.53;;
23720;SDS011;42950;52.134;5.578;2023-04-10T14:32:39;7.50;;;4.53;;
23720;SDS011;42950;52.134;5.578;2023-04-10T14:35:05;7.07;;;4.53;;
23720;SDS011;42950;52.134;5.578;2023-04-10T14:37:31;5.13;;;4.60;;
23720;SDS011;42950;52.134;5.578;2023-04-10T14:39:57;5.40;;;4.90;;
23720;SDS011;42950;52.134;5.578;2023-04-10T14:42:22;6.90;;;5.25;;
23720;SDS011;42950;52.134;5.578;2023-04-10T14:44:48;5.00;;;4.50;;
23720;SDS011;42950;52.134;5.578;2023-04-10T14:47:14;4.97;;;4.07;;
23720;SDS011;42950;52.134;5.578;2023-04-10T14:49:40;4.28;;;3.90;;
23720;SDS011;42950;52.134;5.578;2023-04-10T14:52:06;6.80;;;4.10;;
23720;SDS011;42950;52.134;5.578;2023-04-10T14:54:32;7.70;;;4.22;;
23720;SDS011;42950;52.134;5.578;2023-04-10T14:56:58;6.72;;;4.40;;
23720;SDS011;42950;52.134;5.578;2023-04-10T14:59:23;5.60;;;4.10;;
23720;SDS011;42950;52.134;5.578;2023-04-10T15:01:49;5.82;;;4.25;;
23720;SDS011;42950;52.134;5.578;2023-04-10T15:04:15;4.82;;;4.28;;
23720;SDS011;42950;52.134;5.578;2023-04-10T15:06:41;5.65;;;5.10;;
23720;SDS011;42950;52.134;5.578;2023-04-10T15:09:06;6.88;;;5.30;;
23720;SDS011;42950;52.134;5.578;2023-04-10T15:11:32;6.40;;;4.78;;
23720;SDS011;42950;52.134;5.578;2023-04-10T15:13:58;4.95;;;4.50;;
23720;SDS011;42950;52.134;5.578;2023-04-10T15:16:24;5.90;;;5.22;;